createdAt,value
2023-01-19T00:00:23.326Z,14.90
2023-01-19T00:05:25.068Z,15.18
2023-01-19T00:10:26.710Z,14.50
2023-01-19T00:15:28.323Z,13.40
2023-01-19T00:20:32.109Z,13.30
2023-01-19T00:25:34.184Z,12.57
2023-01-19T00:30:35.961Z,14.45
2023-01-19T00:35:37.613Z,12.35
2023-01-19T00:40:39.266Z,12.27
2023-01-19T00:45:42.095Z,13.27
2023-01-19T00:50:43.748Z,11.55
2023-01-19T00:55:45.348Z,10.75
2023-01-19T01:00:47.000Z,10.13
2023-01-19T01:05:49.123Z,9.07
2023-01-19T01:10:51.879Z,10.05
2023-01-19T01:15:55.214Z,8.73
2023-01-19T01:21:04.803Z,9.60
2023-01-19T01:26:06.476Z,9.05
2023-01-19T01:31:08.096Z,9.73
2023-01-19T01:36:11.956Z,9.88
2023-01-19T01:41:13.721Z,9.02
2023-01-19T01:46:18.413Z,9.50
2023-01-19T01:51:28.835Z,10.57
2023-01-19T01:56:35.983Z,9.43
2023-01-19T02:01:56.177Z,8.93
2023-01-19T02:07:17.055Z,8.75
2023-01-19T02:12:37.291Z,9.35
2023-01-19T02:17:38.915Z,9.07
2023-01-19T02:22:47.148Z,10.50
2023-01-19T02:27:51.600Z,10.27
2023-01-19T02:32:53.344Z,9.90
2023-01-19T02:37:55.060Z,11.98
2023-01-19T02:43:01.210Z,10.45
2023-01-19T02:48:04.699Z,9.70
2023-01-19T02:53:32.408Z,10.13
2023-01-19T02:58:42.892Z,11.63
2023-01-19T03:04:22.832Z,9.50
2023-01-19T03:09:30.326Z,9.45
2023-01-19T03:14:33.655Z,8.80
2023-01-19T03:19:39.316Z,8.10
2023-01-19T03:24:44.537Z,8.73
2023-01-19T03:29:52.987Z,7.50
2023-01-19T03:34:56.992Z,8.30
2023-01-19T03:39:58.750Z,6.80
2023-01-19T03:45:01.760Z,8.43
2023-01-19T03:50:07.708Z,8.75
2023-01-19T03:55:10.413Z,8.93
2023-01-19T04:00:12.802Z,8.50
2023-01-19T04:05:14.551Z,8.40
2023-01-19T04:10:19.836Z,7.00
2023-01-19T04:15:21.434Z,7.22
2023-01-19T04:20:23.083Z,9.25
2023-01-19T04:25:24.699Z,7.93
2023-01-19T04:30:27.489Z,8.85
2023-01-19T04:35:29.102Z,7.70
2023-01-19T04:40:30.907Z,7.57
2023-01-19T04:45:32.691Z,6.70
2023-01-19T04:50:34.374Z,8.65
2023-01-19T04:55:38.107Z,7.57
2023-01-19T05:00:39.912Z,5.65
2023-01-19T05:05:41.512Z,5.68
2023-01-19T05:10:43.103Z,6.75
2023-01-19T05:15:44.833Z,5.63
2023-01-19T05:20:46.904Z,5.72
2023-01-19T05:25:48.520Z,4.97
2023-01-19T05:30:50.315Z,6.05
2023-01-19T05:35:53.345Z,3.95
2023-01-19T05:40:58.579Z,3.83
2023-01-19T05:46:00.212Z,3.78
2023-01-19T05:51:02.026Z,3.83
2023-01-19T05:56:06.298Z,3.67
2023-01-19T06:01:10.192Z,3.97
2023-01-19T06:06:12.560Z,4.38
2023-01-19T06:11:14.154Z,3.67
2023-01-19T06:16:15.789Z,4.03
2023-01-19T06:21:17.505Z,4.43
2023-01-19T06:26:19.113Z,4.03
2023-01-19T06:31:20.955Z,3.70
2023-01-19T06:36:22.563Z,4.03
2023-01-19T06:41:24.239Z,3.67
2023-01-19T06:46:26.247Z,3.75
2023-01-19T06:51:28.029Z,4.30
2023-01-19T06:56:29.631Z,3.78
2023-01-19T07:01:31.813Z,4.68
2023-01-19T07:06:33.490Z,4.78
2023-01-19T07:11:35.089Z,4.72
2023-01-19T07:16:36.734Z,4.60
2023-01-19T07:21:38.367Z,5.38
2023-01-19T07:26:39.977Z,4.65
2023-01-19T07:31:41.641Z,4.30
2023-01-19T07:36:44.140Z,3.78
2023-01-19T07:41:48.286Z,4.65
2023-01-19T07:46:51.231Z,5.18
2023-01-19T07:51:52.984Z,4.63
2023-01-19T07:56:55.311Z,5.40
2023-01-19T08:01:59.586Z,5.53
2023-01-19T08:07:01.489Z,4.63
2023-01-19T08:12:03.958Z,4.65
2023-01-19T08:17:05.562Z,4.53
2023-01-19T08:22:07.217Z,5.43
2023-01-19T08:27:10.021Z,5.15
2023-01-19T08:32:11.860Z,5.47
2023-01-19T08:37:13.484Z,4.60
2023-01-19T08:42:15.086Z,4.88
2023-01-19T08:47:17.369Z,5.07
2023-01-19T08:52:19.032Z,4.88
2023-01-19T08:57:20.650Z,4.03
2023-01-19T09:02:22.345Z,4.80
2023-01-19T09:07:24.069Z,4.97
2023-01-19T09:12:25.668Z,4.32
2023-01-19T09:17:27.349Z,4.78
2023-01-19T09:22:28.990Z,4.07
2023-01-19T09:27:30.879Z,4.43
2023-01-19T09:32:32.621Z,5.18
2023-01-19T09:37:34.223Z,4.00
2023-01-19T09:42:44.188Z,3.90
2023-01-19T09:47:48.653Z,4.10
2023-01-19T09:52:57.425Z,3.35
2023-01-19T09:57:59.496Z,3.10
2023-01-19T10:03:15.408Z,3.78
2023-01-19T10:08:29.237Z,3.33
2023-01-19T10:13:42.108Z,3.65
2023-01-19T10:18:51.903Z,3.15
2023-01-19T10:24:29.335Z,3.08
2023-01-19T10:29:39.140Z,3.22
2023-01-19T10:34:41.725Z,3.13
2023-01-19T10:39:52.121Z,2.92
2023-01-19T10:44:53.850Z,2.90
2023-01-19T10:49:55.798Z,3.10
2023-01-19T10:55:00.071Z,3.40
2023-01-19T11:00:02.117Z,2.97
2023-01-19T11:05:28.015Z,3.38
2023-01-19T11:10:30.846Z,2.63
2023-01-19T11:15:42.539Z,3.15
2023-01-19T11:20:55.512Z,2.28
2023-01-19T11:26:00.579Z,3.25
2023-01-19T11:31:20.373Z,2.70
2023-01-19T11:36:27.807Z,3.10
2023-01-19T11:41:33.419Z,2.70
2023-01-19T11:46:41.120Z,3.10
2023-01-19T11:52:07.235Z,3.58
2023-01-19T11:57:15.183Z,3.13
2023-01-19T12:02:32.054Z,3.58
2023-01-19T12:07:36.167Z,3.15
2023-01-19T12:12:40.523Z,3.33
2023-01-19T12:17:49.229Z,2.80
2023-01-19T12:22:59.874Z,3.20
2023-01-19T12:28:02.724Z,3.47
2023-01-19T12:33:32.743Z,3.40
2023-01-19T12:38:54.513Z,3.88
2023-01-19T12:44:16.079Z,3.65
2023-01-19T12:49:38.900Z,3.60
2023-01-19T12:54:49.615Z,3.60
2023-01-19T13:00:01.697Z,3.25
2023-01-19T13:05:32.831Z,3.30
2023-01-19T13:10:53.889Z,3.83
2023-01-19T13:15:59.909Z,3.30
2023-01-19T13:21:05.479Z,4.22
2023-01-19T13:26:11.552Z,3.90
2023-01-19T13:31:14.049Z,4.15
2023-01-19T13:36:27.917Z,3.85
2023-01-19T13:41:35.068Z,3.83
2023-01-19T13:46:38.700Z,3.45
2023-01-19T13:51:40.401Z,4.13
2023-01-19T13:56:47.337Z,4.00
2023-01-19T14:01:51.235Z,3.75
2023-01-19T14:06:55.771Z,4.47
2023-01-19T14:12:09.430Z,4.00
2023-01-19T14:17:29.457Z,4.32
2023-01-19T14:22:45.614Z,4.50
2023-01-19T14:27:47.213Z,4.72
2023-01-19T14:32:48.894Z,4.43
2023-01-19T14:37:52.010Z,4.78
2023-01-19T14:43:03.323Z,5.47
2023-01-19T14:48:13.142Z,5.60
2023-01-19T14:53:16.375Z,5.22
2023-01-19T14:58:24.442Z,5.45
2023-01-19T15:03:43.619Z,5.88
2023-01-19T15:08:48.854Z,5.35
2023-01-19T15:13:51.141Z,5.53
2023-01-19T15:18:52.845Z,5.55
2023-01-19T15:23:55.779Z,6.05
2023-01-19T15:28:57.532Z,6.40
2023-01-19T15:33:59.172Z,5.53
2023-01-19T15:39:00.759Z,5.35
2023-01-19T15:44:02.428Z,5.68
2023-01-19T15:49:05.783Z,6.85
2023-01-19T15:54:13.775Z,6.75
2023-01-19T15:59:15.418Z,6.57
2023-01-19T16:04:18.128Z,7.47
2023-01-19T16:09:20.200Z,7.68
2023-01-19T16:14:21.814Z,7.18
2023-01-19T16:19:23.503Z,6.15
2023-01-19T16:24:25.791Z,7.75
2023-01-19T16:29:27.407Z,8.02
2023-01-19T16:34:29.107Z,8.15
2023-01-19T16:39:30.745Z,7.28
2023-01-19T16:44:32.380Z,7.40
2023-01-19T16:49:34.189Z,6.47
2023-01-19T16:54:36.963Z,7.68
2023-01-19T16:59:39.905Z,8.60
2023-01-19T17:04:41.531Z,8.95
2023-01-19T17:09:43.122Z,7.80
2023-01-19T17:14:47.321Z,7.35
2023-01-19T17:19:48.994Z,7.18
2023-01-19T17:24:50.596Z,7.60
2023-01-19T17:29:52.221Z,7.40
2023-01-19T17:34:53.831Z,6.90
2023-01-19T17:39:55.934Z,7.25
2023-01-19T17:44:57.607Z,6.97
2023-01-19T17:50:00.426Z,6.55
2023-01-19T17:55:02.280Z,7.00
2023-01-19T18:00:07.916Z,6.95
2023-01-19T18:05:14.745Z,6.60
2023-01-19T18:10:17.065Z,6.60
2023-01-19T18:15:18.855Z,6.22
2023-01-19T18:20:20.461Z,6.82
2023-01-19T18:25:22.105Z,6.43
2023-01-19T18:30:24.034Z,5.10
2023-01-19T18:35:26.058Z,5.82
2023-01-19T18:40:27.693Z,6.00
2023-01-19T18:45:29.291Z,6.50
2023-01-19T18:50:30.953Z,6.75
2023-01-19T18:55:32.554Z,6.35
2023-01-19T19:00:34.246Z,6.32
2023-01-19T19:05:36.879Z,6.05
2023-01-19T19:10:40.799Z,5.65
2023-01-19T19:15:44.379Z,7.35
2023-01-19T19:20:46.069Z,5.97
2023-01-19T19:25:47.766Z,6.07
2023-01-19T19:30:52.594Z,5.50
2023-01-19T19:35:58.224Z,6.15
2023-01-19T19:41:05.130Z,5.97
2023-01-19T19:46:08.801Z,5.97
2023-01-19T19:51:18.978Z,6.30
2023-01-19T19:56:23.285Z,6.00
2023-01-19T20:01:32.658Z,6.95
2023-01-19T20:06:38.925Z,6.43
2023-01-19T20:11:41.895Z,7.03
2023-01-19T20:16:43.965Z,6.25
2023-01-19T20:21:45.631Z,6.95
2023-01-19T20:26:50.430Z,7.22
2023-01-19T20:31:54.899Z,7.13
2023-01-19T20:36:56.645Z,6.63
2023-01-19T20:41:58.254Z,6.82
2023-01-19T20:46:59.913Z,7.43
2023-01-19T20:52:02.167Z,6.80
2023-01-19T20:57:03.790Z,7.25
2023-01-19T21:02:08.068Z,6.97
2023-01-19T21:07:10.037Z,7.13
2023-01-19T21:12:11.865Z,6.90
2023-01-19T21:17:13.476Z,5.97
2023-01-19T21:22:15.107Z,6.43
2023-01-19T21:27:16.747Z,7.35
2023-01-19T21:32:18.518Z,8.05
2023-01-19T21:37:20.216Z,7.45
2023-01-19T21:42:21.833Z,7.18
2023-01-19T21:47:23.457Z,7.05
2023-01-19T21:52:25.063Z,7.40
2023-01-19T21:57:26.808Z,6.93
2023-01-19T22:02:38.331Z,7.32
2023-01-19T22:07:40.648Z,6.78
2023-01-19T22:12:42.287Z,6.72
2023-01-19T22:17:43.892Z,7.47
2023-01-19T22:22:45.480Z,8.00
2023-01-19T22:27:47.066Z,8.38
2023-01-19T22:32:48.748Z,8.32
2023-01-19T22:37:50.364Z,8.05
2023-01-19T22:42:51.952Z,7.78
2023-01-19T22:47:53.560Z,8.60
2023-01-19T22:52:55.842Z,9.63
2023-01-19T22:57:57.423Z,9.73
2023-01-19T23:02:59.051Z,10.38
2023-01-19T23:08:00.702Z,9.25
2023-01-19T23:13:02.309Z,8.52
2023-01-19T23:18:03.949Z,8.25
2023-01-19T23:23:05.772Z,8.88
2023-01-19T23:28:07.866Z,9.55
2023-01-19T23:33:09.454Z,9.93
2023-01-19T23:38:11.042Z,10.93
2023-01-19T23:43:12.730Z,11.63
2023-01-19T23:48:14.361Z,10.43
2023-01-19T23:53:15.957Z,9.93
2023-01-19T23:58:17.567Z,9.88
